Time;durP1;ratioP1;P1;durP2;ratioP2;P2;SDS_P1;SDS_P2;PMS_P1;PMS_P2;Temp;Humidity;BMP_temperature;BMP_pressure;BME280_temperature;BME280_humidity;BME280_pressure;Samples;Min_cycle;Max_cycle;Signal;HPM_P1;HPM_P2
2024/02/06 00:09:17;;;;;;;6.80;2.30;;;;;;;6.49;100.00;98759.56;31263492;28;20405;-80
2024/02/06 00:24:19;;;;;;;2.87;1.60;;;;;;;6.50;100.00;98771.84;31260063;28;20144;-77
2024/02/06 00:39:21;;;;;;;2.03;1.30;;;;;;;6.24;100.00;98780.94;31236596;28;20282;-77
2024/02/06 00:54:23;;;;;;;6.40;1.33;;;;;;;6.11;100.00;98810.50;31225625;28;20160;-76
2024/02/06 01:09:25;;;;;;;2.50;1.20;;;;;;;6.09;100.00;98847.13;31247929;28;20056;-76
2024/02/06 01:24:27;;;;;;;1.60;1.30;;;;;;;6.06;100.00;98872.97;31237585;28;20135;-76
2024/02/06 01:39:29;;;;;;;4.33;1.43;;;;;;;5.87;100.00;98918.75;31228026;28;20151;-75
2024/02/06 01:54:31;;;;;;;3.43;1.20;;;;;;;5.81;100.00;98950.78;31236506;28;20063;-77
2024/02/06 02:09:33;;;;;;;1.50;0.90;;;;;;;5.74;100.00;98992.06;31240047;28;20053;-75
2024/02/06 02:24:35;;;;;;;1.70;0.80;;;;;;;5.91;100.00;99032.56;31229357;28;20359;-77
2024/02/06 02:39:38;;;;;;;3.27;1.10;;;;;;;5.60;100.00;99035.41;31233256;28;20124;-76
2024/02/06 02:54:40;;;;;;;3.17;1.30;;;;;;;5.68;100.00;99069.09;31238714;28;20077;-76
2024/02/06 03:09:42;;;;;;;3.87;1.20;;;;;;;5.57;100.00;99100.06;31258247;28;20077;-77
2024/02/06 03:24:44;;;;;;;4.90;1.03;;;;;;;5.56;100.00;99112.75;31251264;28;20144;-78
2024/02/06 03:39:47;;;;;;;2.90;1.10;;;;;;;5.69;100.00;99111.00;31245970;28;20041;-77
2024/02/06 03:54:49;;;;;;;6.63;1.70;;;;;;;5.47;100.00;99128.66;31249105;28;20061;-76
2024/02/06 04:09:51;;;;;;;3.40;1.47;;;;;;;5.39;100.00;99144.16;31237664;28;20136;-76
2024/02/06 04:24:53;;;;;;;4.70;1.93;;;;;;;5.36;100.00;99149.59;31253105;28;20533;-77
2024/02/06 04:39:55;;;;;;;3.77;2.00;;;;;;;5.01;100.00;99167.72;31239205;28;20095;-77
2024/02/06 04:54:58;;;;;;;5.93;1.77;;;;;;;5.14;100.00;99181.41;31240914;28;20057;-76
2024/02/06 05:10:01;;;;;;;5.07;1.50;;;;;;;5.15;100.00;99199.06;31237439;28;20045;-77
2024/02/06 05:25:06;;;;;;;2.10;1.60;;;;;;;5.34;100.00;99216.50;31226835;28;20148;-77
2024/02/06 05:40:12;;;;;;;5.32;1.90;;;;;;;5.47;100.00;99215.56;31220896;28;20053;-76
2024/02/06 05:55:14;;;;;;;2.67;1.60;;;;;;;5.77;100.00;99217.47;31226502;28;20049;-76
2024/02/06 06:10:17;;;;;;;2.80;1.73;;;;;;;5.75;100.00;99227.88;31227298;28;20494;-76
2024/02/06 06:25:19;;;;;;;4.67;2.20;;;;;;;5.94;100.00;99236.47;31238477;28;20152;-77
2024/02/06 06:40:21;;;;;;;7.70;2.23;;;;;;;6.13;100.00;99246.63;31236497;28;20054;-78
2024/02/06 06:55:23;;;;;;;6.40;2.43;;;;;;;6.15;100.00;99257.72;31224983;28;20081;-76
2024/02/06 07:10:26;;;;;;;6.00;2.10;;;;;;;6.44;100.00;99279.59;31216010;28;20517;-78
2024/02/06 07:25:28;;;;;;;3.80;1.70;;;;;;;6.89;100.00;99287.31;31230679;28;20151;-83
2024/02/06 07:40:30;;;;;;;8.57;2.57;;;;;;;6.95;100.00;99297.25;31268552;28;20063;-77
2024/02/06 07:55:32;;;;;;;8.50;2.40;;;;;;;6.81;100.00;99292.09;31291664;28;20106;-77
2024/02/06 08:10:34;;;;;;;3.10;1.77;;;;;;;6.85;100.00;99295.47;31271196;28;20064;-78
2024/02/06 08:25:36;;;;;;;7.53;2.20;;;;;;;7.56;100.00;99294.13;31263011;28;20133;-76
2024/02/06 08:40:38;;;;;;;5.30;2.33;;;;;;;8.02;100.00;99327.56;31250128;28;20045;-78
2024/02/06 08:55:40;;;;;;;3.17;2.07;;;;;;;7.93;100.00;99308.44;31250331;28;20061;-74
2024/02/06 09:10:43;;;;;;;6.57;2.60;;;;;;;8.24;100.00;99317.78;31239852;28;20269;-78
2024/02/06 09:25:45;;;;;;;3.63;2.13;;;;;;;8.47;100.00;99304.16;31251836;28;20048;-80
2024/02/06 09:40:49;;;;;;;6.17;2.03;;;;;;;8.50;100.00;99297.13;31266663;28;20052;-83
2024/02/06 09:55:51;;;;;;;2.33;1.47;;;;;;;8.24;96.14;99274.53;31265545;28;20061;-83
2024/02/06 10:10:56;;;;;;;3.33;1.23;;;;;;;8.20;91.75;99279.25;31272151;28;20152;-81
2024/02/06 10:26:02;;;;;;;5.80;1.23;;;;;;;7.77;94.90;99285.63;31262481;28;20057;-83
2024/02/06 10:41:09;;;;;;;5.47;1.30;;;;;;;7.96;94.17;99264.38;31277051;28;20113;-82
2024/02/06 10:56:27;;;;;;;2.87;1.40;;;;;;;8.29;93.66;99265.13;31261858;28;20060;-82
2024/02/06 11:11:29;;;;;;;2.43;1.27;;;;;;;8.50;96.72;99260.00;31276181;28;20094;-82
2024/02/06 11:26:31;;;;;;;4.13;1.40;;;;;;;8.42;91.66;99268.72;31301140;28;20049;-84
2024/02/06 11:41:34;;;;;;;2.80;1.20;;;;;;;8.27;92.78;99257.44;31273102;28;20041;-80
2024/02/06 11:56:37;;;;;;;2.93;1.00;;;;;;;8.36;94.28;99254.94;31266934;28;20089;-82
2024/02/06 12:11:43;;;;;;;6.07;1.73;;;;;;;8.39;91.87;99245.22;31270802;28;20594;-82
2024/02/06 12:26:45;;;;;;;3.70;1.50;;;;;;;8.12;100.00;99250.84;31278181;28;20065;-80
2024/02/06 12:41:58;;;;;;;3.83;1.97;;;;;;;8.22;100.00;99255.25;31278891;28;20041;-80
2024/02/06 12:57:01;;;;;;;4.63;1.43;;;;;;;8.01;100.00;99248.41;31257416;28;20061;-78
2024/02/06 13:12:06;;;;;;;5.00;2.23;;;;;;;8.05;100.00;99256.41;31229311;28;20046;-78
2024/02/06 13:27:09;;;;;;;11.83;5.23;;;;;;;7.79;100.00;99272.44;31215514;28;20046;-78
2024/02/06 13:42:12;;;;;;;5.10;2.47;;;;;;;7.66;100.00;99243.78;31243436;28;20286;-81
2024/02/06 13:57:14;;;;;;;3.43;2.03;;;;;;;7.49;100.00;99234.88;31213495;28;20065;-77
2024/02/06 14:12:19;;;;;;;4.77;1.60;;;;;;;7.45;100.00;99247.69;31227982;28;20414;-76
2024/02/06 14:27:27;;;;;;;6.47;2.40;;;;;;;7.28;100.00;99232.63;31235503;28;20045;-77
2024/02/06 14:42:30;;;;;;;6.80;2.57;;;;;;;7.13;100.00;99238.28;31270655;28;20049;-78
2024/02/06 14:57:32;;;;;;;8.50;3.63;;;;;;;6.90;100.00;99229.50;31238900;28;20404;-77
2024/02/06 15:12:34;;;;;;;11.37;3.50;;;;;;;6.87;100.00;99225.69;31260785;28;20486;-80
2024/02/06 15:27:36;;;;;;;11.77;3.83;;;;;;;6.73;100.00;99212.47;31255181;28;20538;-85
2024/02/06 15:42:39;;;;;;;7.25;3.20;;;;;;;6.81;100.00;99211.19;31235540;28;20050;-84
2024/02/06 15:57:41;;;;;;;7.53;2.90;;;;;;;6.85;100.00;99192.97;31280872;28;20057;-78
2024/02/06 16:12:43;;;;;;;7.37;3.13;;;;;;;6.91;100.00;99187.84;31283493;28;20053;-79
2024/02/06 16:27:54;;;;;;;9.30;3.80;;;;;;;7.02;100.00;99181.09;31274112;28;20046;-82
2024/02/06 16:42:57;;;;;;;12.33;4.33;;;;;;;7.05;100.00;99171.41;31257502;28;20049;-81
2024/02/06 16:57:59;;;;;;;8.53;3.60;;;;;;;7.26;100.00;99172.88;31245762;28;20188;-81
2024/02/06 17:13:01;;;;;;;9.17;3.80;;;;;;;7.49;100.00;99175.47;31261365;28;20462;-77
2024/02/06 17:28:03;;;;;;;10.37;4.67;;;;;;;7.68;100.00;99160.38;31272574;28;20095;-78
2024/02/06 17:43:06;;;;;;;12.47;5.33;;;;;;;7.66;100.00;99155.41;31268260;28;20061;-80
2024/02/06 17:58:09;;;;;;;8.37;4.43;;;;;;;7.93;100.00;99157.88;31275467;28;20053;-82
2024/02/06 18:13:13;;;;;;;12.03;5.93;;;;;;;8.06;100.00;99133.59;31264590;28;20053;-79
2024/02/06 18:28:16;;;;;;;22.00;9.57;;;;;;;8.47;100.00;99131.03;31287612;28;20053;-81
2024/02/06 18:43:18;;;;;;;14.67;6.53;;;;;;;8.76;100.00;99149.19;31241841;28;20084;-79
2024/02/06 18:58:20;;;;;;;9.63;5.27;;;;;;;9.04;100.00;99161.94;31247993;28;20088;-79
2024/02/06 19:13:22;;;;;;;18.13;11.47;;;;;;;9.15;100.00;99148.88;31264567;28;20049;-80
2024/02/06 19:28:24;;;;;;;9.53;5.03;;;;;;;9.44;100.00;99126.34;31276701;28;20041;-79
2024/02/06 19:43:26;;;;;;;9.60;4.77;;;;;;;9.62;100.00;99110.31;31267502;28;20046;-81
2024/02/06 19:58:29;;;;;;;9.60;4.83;;;;;;;9.72;100.00;99111.91;31262350;28;20143;-81
2024/02/06 20:13:32;;;;;;;12.27;4.83;;;;;;;10.02;100.00;99123.34;31303775;28;20057;-81
2024/02/06 20:28:34;;;;;;;10.53;4.70;;;;;;;10.18;100.00;99117.75;31244964;28;20056;-81
2024/02/06 20:43:37;;;;;;;7.83;3.63;;;;;;;10.28;100.00;99108.53;31316819;28;20052;-85
2024/02/06 20:58:39;;;;;;;7.87;4.13;;;;;;;10.52;100.00;99098.78;31280470;28;20451;-80
2024/02/06 21:13:41;;;;;;;5.77;3.60;;;;;;;10.76;100.00;99111.91;31245153;28;20462;-79
2024/02/06 21:28:43;;;;;;;12.07;6.60;;;;;;;10.52;100.00;99112.34;31252202;28;20041;-76
2024/02/06 21:43:45;;;;;;;10.17;5.87;;;;;;;10.35;100.00;99112.97;31267009;28;20080;-81
2024/02/06 21:58:48;;;;;;;9.60;6.90;;;;;;;10.17;100.00;99086.41;31239395;28;20050;-78
2024/02/06 22:13:50;;;;;;;9.63;6.13;;;;;;;9.90;100.00;99095.84;31246482;28;20084;-80
2024/02/06 22:28:52;;;;;;;11.73;4.80;;;;;;;9.68;100.00;99086.13;31246272;28;20475;-80
2024/02/06 22:43:56;;;;;;;11.73;4.90;;;;;;;9.48;100.00;99081.69;31234915;28;20045;-78
2024/02/06 22:58:58;;;;;;;8.07;5.00;;;;;;;9.31;100.00;99084.94;31253888;28;20088;-80
2024/02/06 23:14:00;;;;;;;9.80;4.97;;;;;;;9.21;100.00;99087.53;31267822;28;20045;-77
2024/02/06 23:29:02;;;;;;;18.07;6.63;;;;;;;9.14;100.00;99074.25;31278628;28;20128;-80
2024/02/06 23:44:04;;;;;;;16.23;6.80;;;;;;;8.90;100.00;99067.63;31265823;28;20053;-79
2024/02/06 23:59:07;;;;;;;11.40;5.13;;;;;;;8.79;100.00;99067.16;31261867;28;20502;-79
